createdAt,value
2023-03-02T00:00:53.967Z,5.80
2023-03-02T00:01:53.976Z,6.10
2023-03-02T00:02:53.979Z,6.30
2023-03-02T00:03:54.048Z,5.20
2023-03-02T00:04:53.932Z,5.80
2023-03-02T00:05:53.921Z,5.60
2023-03-02T00:06:53.923Z,5.90
2023-03-02T00:07:53.901Z,6.10
2023-03-02T00:08:53.884Z,5.50
2023-03-02T00:09:53.882Z,5.60
2023-03-02T00:10:53.873Z,6.00
2023-03-02T00:11:53.873Z,6.20
2023-03-02T00:12:53.854Z,6.30
2023-03-02T00:13:53.850Z,6.00
2023-03-02T00:14:53.838Z,5.40
2023-03-02T00:15:53.864Z,5.70
2023-03-02T00:16:53.830Z,5.60
2023-03-02T00:17:53.813Z,6.10
2023-03-02T00:18:53.798Z,5.80
2023-03-02T00:19:53.793Z,5.30
2023-03-02T00:20:53.781Z,5.60
2023-03-02T00:21:53.781Z,5.60
2023-03-02T00:22:53.763Z,5.60
2023-03-02T00:23:53.756Z,5.70
2023-03-02T00:24:53.743Z,6.00
2023-03-02T00:25:53.734Z,6.00
2023-03-02T00:26:53.735Z,5.80
2023-03-02T00:27:53.723Z,5.80
2023-03-02T00:28:53.709Z,5.90
2023-03-02T00:29:53.697Z,5.90
2023-03-02T00:30:53.685Z,5.70
2023-03-02T00:31:53.848Z,5.70
2023-03-02T00:32:53.672Z,6.10
2023-03-02T00:33:53.662Z,5.60
2023-03-02T00:34:53.657Z,6.40
2023-03-02T00:35:53.732Z,5.60
2023-03-02T00:36:53.635Z,6.20
2023-03-02T00:37:53.624Z,5.30
2023-03-02T00:38:53.621Z,6.00
2023-03-02T00:39:53.612Z,6.30
2023-03-02T00:40:53.596Z,5.80
2023-03-02T00:41:53.599Z,5.80
2023-03-02T00:42:53.577Z,5.90
2023-03-02T00:43:53.567Z,5.80
2023-03-02T00:44:53.563Z,5.90
2023-03-02T00:45:53.551Z,5.30
2023-03-02T00:46:53.616Z,5.40
2023-03-02T00:47:53.535Z,5.30
2023-03-02T00:48:53.522Z,5.10
2023-03-02T00:49:53.515Z,5.60
2023-03-02T00:50:53.508Z,5.60
2023-03-02T00:51:53.613Z,5.70
2023-03-02T00:52:53.489Z,5.30
2023-03-02T00:53:53.481Z,5.40
2023-03-02T00:54:53.473Z,5.00
2023-03-02T00:55:53.466Z,5.10
2023-03-02T00:56:53.507Z,5.80
2023-03-02T00:57:53.444Z,5.50
2023-03-02T00:58:53.439Z,4.70
2023-03-02T00:59:53.438Z,5.30
2023-03-02T01:00:53.423Z,5.60
2023-03-02T01:01:53.450Z,5.30
2023-03-02T01:02:53.496Z,5.30
2023-03-02T01:03:53.412Z,5.30
2023-03-02T01:04:53.394Z,5.60
2023-03-02T01:05:53.388Z,5.90
2023-03-02T01:06:53.397Z,5.10
2023-03-02T01:07:53.385Z,5.50
2023-03-02T01:08:53.361Z,5.40
2023-03-02T01:09:53.351Z,5.70
2023-03-02T01:10:54.306Z,5.50
2023-03-02T01:11:54.347Z,5.50
2023-03-02T01:12:53.329Z,5.30
2023-03-02T01:13:53.325Z,5.90
2023-03-02T01:14:53.308Z,5.40
2023-03-02T01:15:53.331Z,5.70
2023-03-02T01:16:53.306Z,6.00
2023-03-02T01:17:53.281Z,5.50
2023-03-02T01:18:53.275Z,4.90
2023-03-02T01:19:53.264Z,6.10
2023-03-02T01:20:53.257Z,5.70
2023-03-02T01:21:53.256Z,5.60
2023-03-02T01:22:53.243Z,5.60
2023-03-02T01:23:53.225Z,5.80
2023-03-02T01:24:53.218Z,5.30
2023-03-02T01:25:53.211Z,5.10
2023-03-02T01:26:53.219Z,5.60
2023-03-02T01:27:53.205Z,5.70
2023-03-02T01:28:53.183Z,5.90
2023-03-02T01:29:53.176Z,5.40
2023-03-02T01:30:53.168Z,5.30
2023-03-02T01:31:53.303Z,5.70
2023-03-02T01:32:53.146Z,6.10
2023-03-02T01:33:53.156Z,5.60
2023-03-02T01:34:53.122Z,5.40
2023-03-02T01:35:53.184Z,5.60
2023-03-02T01:36:53.116Z,5.80
2023-03-02T01:37:53.101Z,5.20
2023-03-02T01:38:53.119Z,5.90
2023-03-02T01:39:53.086Z,5.10
2023-03-02T01:40:53.065Z,5.30
2023-03-02T01:41:53.068Z,5.30
2023-03-02T01:42:53.050Z,5.50
2023-03-02T01:43:53.037Z,5.20
2023-03-02T01:44:53.065Z,5.30
2023-03-02T01:45:53.226Z,5.70
2023-03-02T01:46:53.024Z,5.50
2023-03-02T01:47:53.005Z,5.70
2023-03-02T01:48:53.008Z,5.50
2023-03-02T01:49:52.998Z,5.80
2023-03-02T01:50:52.977Z,5.70
2023-03-02T01:51:52.999Z,5.70
2023-03-02T01:52:52.963Z,5.70
2023-03-02T01:53:54.621Z,5.30
2023-03-02T01:54:52.943Z,6.40
2023-03-02T01:55:52.942Z,5.60
2023-03-02T01:56:52.952Z,5.50
2023-03-02T01:57:52.930Z,5.90
2023-03-02T01:58:52.911Z,5.20
2023-03-02T01:59:52.902Z,5.30
2023-03-02T02:00:52.901Z,5.50
2023-03-02T02:01:52.893Z,5.50
2023-03-02T02:02:52.869Z,5.30
2023-03-02T02:03:52.886Z,5.70
2023-03-02T02:04:52.854Z,5.10
2023-03-02T02:05:52.846Z,5.50
2023-03-02T02:06:52.876Z,4.90
2023-03-02T02:07:52.826Z,5.90
2023-03-02T02:08:52.826Z,5.60
2023-03-02T02:09:52.813Z,5.70
2023-03-02T02:10:52.793Z,5.50
2023-03-02T02:11:52.786Z,5.40
2023-03-02T02:12:52.805Z,6.00
2023-03-02T02:13:52.789Z,5.80
2023-03-02T02:14:52.767Z,5.90
2023-03-02T02:15:52.749Z,5.70
2023-03-02T02:16:52.789Z,5.90
2023-03-02T02:17:52.733Z,5.50
2023-03-02T02:18:53.725Z,5.40
2023-03-02T02:19:52.722Z,5.60
2023-03-02T02:20:52.697Z,5.60
2023-03-02T02:21:52.691Z,5.80
2023-03-02T02:22:52.696Z,6.20
2023-03-02T02:23:52.678Z,5.20
2023-03-02T02:24:52.660Z,4.50
2023-03-02T02:25:52.654Z,5.20
2023-03-02T02:26:52.645Z,5.70
2023-03-02T02:27:52.649Z,5.80
2023-03-02T02:28:52.664Z,5.40
2023-03-02T02:29:52.677Z,6.00
2023-03-02T02:30:52.610Z,5.50
2023-03-02T02:31:52.715Z,5.90
2023-03-02T02:32:52.651Z,5.20
2023-03-02T02:33:52.582Z,5.50
2023-03-02T02:34:52.584Z,6.00
2023-03-02T02:35:52.610Z,5.30
2023-03-02T02:36:52.555Z,5.40
2023-03-02T02:37:52.591Z,5.90
2023-03-02T02:38:52.537Z,5.70
2023-03-02T02:39:52.555Z,5.40
2023-03-02T02:40:52.540Z,5.70
2023-03-02T02:41:52.541Z,5.70
2023-03-02T02:42:52.531Z,5.60
2023-03-02T02:43:52.497Z,5.10
2023-03-02T02:44:52.486Z,5.50
2023-03-02T02:45:52.669Z,5.30
2023-03-02T02:46:52.472Z,6.00
2023-03-02T02:47:52.480Z,5.60
2023-03-02T02:48:52.445Z,5.20
2023-03-02T02:49:52.433Z,3.40
2023-03-02T02:50:53.428Z,3.00
2023-03-02T02:51:52.421Z,5.00
2023-03-02T02:52:52.425Z,2.80
2023-03-02T02:53:52.406Z,4.80
2023-03-02T02:54:52.397Z,4.00
2023-03-02T02:55:52.391Z,5.00
2023-03-02T02:56:52.376Z,4.90
2023-03-02T02:57:52.378Z,4.60
2023-03-02T02:58:52.359Z,5.40
2023-03-02T02:59:52.346Z,4.50
2023-03-02T03:00:52.402Z,5.30
2023-03-02T03:01:52.414Z,5.50
2023-03-02T03:02:52.337Z,5.20
2023-03-02T03:03:52.380Z,5.00
2023-03-02T03:04:52.309Z,6.50
2023-03-02T03:05:52.296Z,5.20
2023-03-02T03:06:52.294Z,5.50
2023-03-02T03:07:52.317Z,4.60
2023-03-02T03:08:52.268Z,5.70
2023-03-02T03:09:52.275Z,4.30
2023-03-02T03:10:52.248Z,4.90
2023-03-02T03:11:52.251Z,4.40
2023-03-02T03:12:52.246Z,5.00
2023-03-02T03:13:52.230Z,5.20
2023-03-02T03:14:52.217Z,6.00
2023-03-02T03:15:52.204Z,5.60
2023-03-02T03:16:52.265Z,5.30
2023-03-02T03:17:52.217Z,5.70
2023-03-02T03:18:52.179Z,5.50
2023-03-02T03:19:52.165Z,6.30
2023-03-02T03:20:52.163Z,5.10
2023-03-02T03:21:52.152Z,5.20
2023-03-02T03:22:52.147Z,5.20
2023-03-02T03:23:52.129Z,4.60
2023-03-02T03:24:52.135Z,4.90
2023-03-02T03:25:52.111Z,5.00
2023-03-02T03:26:52.104Z,4.20
2023-03-02T03:27:52.119Z,4.10
2023-03-02T03:28:52.083Z,5.60
2023-03-02T03:29:52.072Z,5.10
2023-03-02T03:30:52.103Z,5.20
2023-03-02T03:31:52.132Z,4.60
2023-03-02T03:32:52.057Z,5.60
2023-03-02T03:33:52.037Z,4.60
2023-03-02T03:34:52.038Z,4.30
2023-03-02T03:35:52.075Z,5.00
2023-03-02T03:36:52.025Z,5.10
2023-03-02T03:37:52.012Z,5.00
2023-03-02T03:38:51.997Z,2.90
2023-03-02T03:39:51.985Z,3.50
2023-03-02T03:40:51.971Z,4.20
2023-03-02T03:41:51.960Z,4.90
2023-03-02T03:42:51.968Z,4.90
2023-03-02T03:43:51.980Z,4.30
2023-03-02T03:44:52.946Z,4.70
2023-03-02T03:45:52.017Z,4.10
2023-03-02T03:46:51.932Z,4.50
2023-03-02T03:47:51.916Z,3.60
2023-03-02T03:48:51.906Z,4.30
2023-03-02T03:49:51.888Z,4.50
2023-03-02T03:50:51.881Z,4.50
2023-03-02T03:51:51.873Z,3.90
2023-03-02T03:52:51.877Z,4.30
2023-03-02T03:53:51.855Z,4.80
2023-03-02T03:54:51.847Z,3.10
2023-03-02T03:55:51.837Z,3.60
2023-03-02T03:56:51.826Z,4.00
2023-03-02T03:57:51.834Z,3.50
2023-03-02T03:58:51.827Z,4.00
2023-03-02T03:59:51.801Z,4.80
2023-03-02T04:00:51.791Z,5.60
2023-03-02T04:01:51.807Z,5.30
2023-03-02T04:02:51.820Z,5.00
2023-03-02T04:03:51.758Z,4.40
2023-03-02T04:04:51.758Z,4.10
2023-03-02T04:05:51.751Z,4.10
2023-03-02T04:06:51.732Z,4.20
2023-03-02T04:07:51.725Z,4.60
2023-03-02T04:08:51.712Z,4.40
2023-03-02T04:09:51.702Z,4.70
2023-03-02T04:10:51.694Z,4.00
2023-03-02T04:11:51.684Z,4.50
2023-03-02T04:12:51.686Z,3.90
2023-03-02T04:13:51.673Z,4.50
2023-03-02T04:14:51.665Z,3.50
2023-03-02T04:15:51.691Z,3.60
2023-03-02T04:16:51.647Z,4.50
2023-03-02T04:17:51.639Z,4.50
2023-03-02T04:18:51.619Z,4.40
2023-03-02T04:19:51.604Z,3.90
2023-03-02T04:20:51.603Z,3.70
2023-03-02T04:21:51.597Z,4.80
2023-03-02T04:22:51.606Z,4.00
2023-03-02T04:23:51.575Z,3.70
2023-03-02T04:24:51.568Z,4.50
2023-03-02T04:25:51.555Z,5.30
2023-03-02T04:26:51.573Z,5.10
2023-03-02T04:27:51.557Z,5.00
2023-03-02T04:28:51.532Z,5.60
2023-03-02T04:29:51.531Z,5.30
2023-03-02T04:30:51.608Z,5.40
2023-03-02T04:31:51.596Z,5.80
2023-03-02T04:32:51.515Z,5.70
2023-03-02T04:33:51.500Z,5.60
2023-03-02T04:34:51.492Z,5.20
2023-03-02T04:35:51.504Z,3.90
2023-03-02T04:36:51.472Z,4.90
2023-03-02T04:37:51.489Z,5.10
2023-03-02T04:38:51.461Z,3.80
2023-03-02T04:39:51.460Z,5.10
2023-03-02T04:40:51.438Z,5.10
2023-03-02T04:41:51.429Z,4.00
2023-03-02T04:42:51.436Z,4.30
2023-03-02T04:43:51.414Z,3.90
2023-03-02T04:44:51.405Z,5.50
2023-03-02T04:45:51.401Z,5.10
2023-03-02T04:46:51.524Z,4.70
2023-03-02T04:47:51.391Z,5.50
2023-03-02T04:48:51.370Z,5.40
2023-03-02T04:49:51.366Z,5.20
2023-03-02T04:50:51.354Z,5.80
2023-03-02T04:51:51.349Z,4.20
2023-03-02T04:52:51.348Z,4.60
2023-03-02T04:53:51.328Z,5.20
2023-03-02T04:54:51.359Z,3.80
2023-03-02T04:55:51.320Z,4.20
2023-03-02T04:56:51.302Z,3.90
2023-03-02T04:57:51.317Z,5.20
2023-03-02T04:58:51.286Z,6.90
2023-03-02T04:59:51.287Z,5.70
2023-03-02T05:00:51.280Z,6.40
2023-03-02T05:01:51.317Z,5.90
2023-03-02T05:02:52.269Z,6.50
2023-03-02T05:03:51.254Z,6.60
2023-03-02T05:04:51.257Z,6.40
2023-03-02T05:05:51.221Z,5.60
2023-03-02T05:06:51.239Z,5.40
2023-03-02T05:07:51.223Z,6.20
2023-03-02T05:08:51.194Z,5.70
2023-03-02T05:09:51.187Z,5.90
2023-03-02T05:10:51.178Z,5.10
2023-03-02T05:11:51.167Z,4.10
2023-03-02T05:12:51.171Z,4.60
2023-03-02T05:13:51.159Z,5.20
2023-03-02T05:14:51.139Z,6.60
2023-03-02T05:15:51.190Z,5.90
2023-03-02T05:16:51.123Z,5.80
2023-03-02T05:17:51.128Z,6.40
2023-03-02T05:19:23.017Z,6.60
2023-03-02T05:19:51.101Z,6.20
2023-03-02T05:20:51.095Z,5.90
2023-03-02T05:21:51.086Z,5.90
2023-03-02T05:22:51.117Z,6.30
2023-03-02T05:23:51.068Z,7.20
2023-03-02T05:24:51.059Z,6.60
2023-03-02T05:25:51.051Z,5.90
2023-03-02T05:26:51.046Z,6.00
2023-03-02T05:27:51.051Z,6.30
2023-03-02T05:28:53.017Z,5.50
2023-03-02T05:29:52.020Z,6.30
2023-03-02T05:30:51.021Z,6.20
2023-03-02T05:31:51.169Z,7.00
2023-03-02T05:32:50.993Z,5.60
2023-03-02T05:33:51.002Z,5.90
2023-03-02T05:34:50.971Z,6.60
2023-03-02T05:35:51.022Z,5.60
2023-03-02T05:36:50.954Z,5.90
2023-03-02T05:37:50.943Z,4.90
2023-03-02T05:38:50.947Z,5.50
2023-03-02T05:39:50.935Z,4.60
2023-03-02T05:40:50.922Z,5.70
2023-03-02T05:41:51.003Z,5.00
2023-03-02T05:42:50.906Z,6.30
2023-03-02T05:43:50.903Z,5.20
2023-03-02T05:44:50.891Z,5.10
2023-03-02T05:45:50.883Z,5.60
2023-03-02T05:46:50.904Z,5.60
2023-03-02T05:47:50.863Z,5.00
2023-03-02T05:48:50.865Z,4.90
2023-03-02T05:49:50.839Z,5.00
2023-03-02T05:50:50.837Z,5.20
2023-03-02T05:51:50.830Z,5.40
2023-03-02T05:52:50.858Z,5.50
2023-03-02T05:53:50.834Z,6.40
2023-03-02T05:54:50.795Z,6.00
2023-03-02T05:55:50.817Z,6.50
2023-03-02T05:56:50.779Z,5.30
2023-03-02T05:57:50.772Z,6.40
2023-03-02T05:58:50.781Z,5.70
2023-03-02T05:59:50.753Z,5.80
2023-03-02T06:00:50.756Z,5.70
2023-03-02T06:01:50.819Z,5.80
2023-03-02T06:02:50.773Z,5.90
2023-03-02T06:03:50.722Z,5.80
2023-03-02T06:04:50.702Z,5.20
2023-03-02T06:05:50.718Z,5.80
2023-03-02T06:06:50.689Z,5.10
2023-03-02T06:07:50.678Z,5.80
2023-03-02T06:08:50.680Z,5.10
2023-03-02T06:09:50.682Z,5.50
2023-03-02T06:10:50.675Z,5.10
2023-03-02T06:11:50.650Z,5.30
2023-03-02T06:12:50.625Z,5.60
2023-03-02T06:13:50.630Z,4.80
2023-03-02T06:14:50.607Z,5.00
2023-03-02T06:15:50.599Z,6.20
2023-03-02T06:16:50.625Z,5.50
2023-03-02T06:17:50.586Z,5.40
2023-03-02T06:18:50.601Z,5.60
2023-03-02T06:19:50.575Z,4.70
2023-03-02T06:20:50.573Z,5.30
2023-03-02T06:21:50.551Z,4.80
2023-03-02T06:22:50.541Z,4.70
2023-03-02T06:23:50.547Z,3.70
2023-03-02T06:24:50.519Z,5.40
2023-03-02T06:25:50.518Z,6.00
2023-03-02T06:26:50.502Z,6.20
2023-03-02T06:27:50.496Z,6.20
2023-03-02T06:28:53.146Z,6.20
2023-03-02T06:29:51.507Z,6.10
2023-03-02T06:30:50.476Z,6.00
2023-03-02T06:31:50.599Z,5.60
2023-03-02T06:32:50.510Z,5.90
2023-03-02T06:33:51.467Z,6.30
2023-03-02T06:34:50.437Z,5.20
2023-03-02T06:35:50.601Z,6.50
2023-03-02T06:36:50.417Z,5.50
2023-03-02T06:37:50.409Z,5.60
2023-03-02T06:38:50.440Z,6.00
2023-03-02T06:39:50.389Z,6.60
2023-03-02T06:40:50.387Z,5.10
2023-03-02T06:41:50.375Z,6.00
2023-03-02T06:42:50.362Z,5.50
2023-03-02T06:43:50.387Z,5.30
2023-03-02T06:44:50.342Z,5.80
2023-03-02T06:45:50.349Z,5.40
2023-03-02T06:46:50.328Z,6.10
2023-03-02T06:47:50.319Z,6.30
2023-03-02T06:48:50.319Z,5.60
2023-03-02T06:49:50.302Z,6.10
2023-03-02T06:50:50.300Z,5.10
2023-03-02T06:51:50.303Z,5.70
2023-03-02T06:52:50.281Z,5.60
2023-03-02T06:53:50.279Z,5.80
2023-03-02T06:54:50.255Z,5.80
2023-03-02T06:55:50.255Z,6.00
2023-03-02T06:56:50.241Z,5.60
2023-03-02T06:57:50.247Z,6.10
2023-03-02T06:58:50.245Z,5.60
2023-03-02T06:59:50.228Z,5.80
2023-03-02T07:00:50.273Z,5.50
2023-03-02T07:01:50.199Z,5.80
2023-03-02T07:02:50.189Z,4.90
2023-03-02T07:03:50.312Z,5.60
2023-03-02T07:04:50.176Z,6.00
2023-03-02T07:05:50.170Z,5.70
2023-03-02T07:06:50.153Z,5.60
2023-03-02T07:07:50.145Z,6.30
2023-03-02T07:08:50.144Z,5.10
2023-03-02T07:09:50.124Z,5.80
2023-03-02T07:10:50.124Z,4.90
2023-03-02T07:11:50.107Z,5.40
2023-03-02T07:12:50.093Z,5.40
2023-03-02T07:13:50.104Z,5.40
2023-03-02T07:14:50.075Z,5.60
2023-03-02T07:15:50.102Z,5.50
2023-03-02T07:16:50.121Z,5.70
2023-03-02T07:17:50.048Z,5.30
2023-03-02T07:18:50.061Z,5.50
2023-03-02T07:19:50.050Z,5.30
2023-03-02T07:20:50.029Z,5.90
2023-03-02T07:21:50.013Z,5.40
2023-03-02T07:22:50.009Z,5.00
2023-03-02T07:23:50.016Z,5.30
2023-03-02T07:24:50.001Z,5.60
2023-03-02T07:25:49.993Z,5.90
2023-03-02T07:26:49.980Z,5.90
2023-03-02T07:27:49.979Z,6.30
2023-03-02T07:28:50.010Z,5.30
2023-03-02T07:29:49.950Z,5.00
2023-03-02T07:30:49.998Z,5.60
2023-03-02T07:31:49.941Z,5.80
2023-03-02T07:32:49.925Z,5.10
2023-03-02T07:33:49.940Z,5.40
2023-03-02T07:34:49.912Z,5.20
2023-03-02T07:35:49.926Z,5.70
2023-03-02T07:36:49.892Z,5.40
2023-03-02T07:37:49.912Z,5.30
2023-03-02T07:38:49.876Z,5.00
2023-03-02T07:39:49.873Z,5.60
2023-03-02T07:40:49.853Z,5.20
2023-03-02T07:41:49.848Z,5.50
2023-03-02T07:42:49.833Z,5.50
2023-03-02T07:43:49.837Z,5.20
2023-03-02T07:44:49.814Z,5.50
2023-03-02T07:45:49.810Z,5.40
2023-03-02T07:46:49.871Z,5.20
2023-03-02T07:47:49.806Z,5.30
2023-03-02T07:48:49.799Z,5.60
2023-03-02T07:49:49.787Z,5.00
2023-03-02T07:50:49.774Z,5.30
2023-03-02T07:51:49.753Z,5.50
2023-03-02T07:52:49.752Z,5.30
2023-03-02T07:53:49.755Z,5.10
2023-03-02T07:54:49.735Z,5.60
2023-03-02T07:55:49.731Z,5.60
2023-03-02T07:56:49.711Z,5.60
2023-03-02T07:57:49.726Z,4.70
2023-03-02T07:58:49.706Z,5.30
2023-03-02T07:59:49.687Z,4.10
2023-03-02T08:00:49.685Z,5.20
2023-03-02T08:01:49.733Z,4.70
2023-03-02T08:02:49.726Z,5.10
2023-03-02T08:03:49.678Z,4.70
2023-03-02T08:04:49.645Z,4.30
2023-03-02T08:05:49.696Z,4.50
2023-03-02T08:06:49.641Z,4.90
2023-03-02T08:07:49.654Z,4.30
2023-03-02T08:08:49.624Z,5.20
2023-03-02T08:09:49.607Z,4.60
2023-03-02T08:10:49.612Z,4.80
2023-03-02T08:11:49.581Z,4.60
2023-03-02T08:12:49.572Z,4.70
2023-03-02T08:13:49.571Z,4.70
2023-03-02T08:14:49.563Z,4.70
2023-03-02T08:15:49.574Z,4.50
2023-03-02T08:16:49.537Z,5.00
2023-03-02T08:17:49.534Z,4.70
2023-03-02T08:18:49.540Z,4.60
2023-03-02T08:19:49.514Z,4.40
2023-03-02T08:20:49.496Z,4.60
2023-03-02T08:21:49.505Z,4.80
2023-03-02T08:22:49.492Z,3.80
2023-03-02T08:23:49.541Z,4.90
2023-03-02T08:24:49.469Z,4.10
2023-03-02T08:25:49.463Z,4.40
2023-03-02T08:26:49.449Z,4.00
2023-03-02T08:27:49.446Z,4.80
2023-03-02T08:28:49.471Z,4.20
2023-03-02T08:29:49.417Z,5.00
2023-03-02T08:30:50.420Z,5.70
2023-03-02T08:31:49.460Z,4.40
2023-03-02T08:32:49.460Z,4.20
2023-03-02T08:33:49.413Z,4.50
2023-03-02T08:34:49.380Z,4.30
2023-03-02T08:35:51.339Z,4.80
2023-03-02T08:36:49.362Z,5.00
2023-03-02T08:37:49.357Z,4.40
2023-03-02T08:38:49.370Z,4.50
2023-03-02T08:39:49.339Z,4.50
2023-03-02T08:40:49.331Z,4.60
2023-03-02T08:41:49.315Z,4.40
2023-03-02T08:42:49.307Z,4.40
2023-03-02T08:43:49.307Z,4.20
2023-03-02T08:44:50.297Z,3.90
2023-03-02T08:45:49.324Z,4.20
2023-03-02T08:46:49.272Z,4.40
2023-03-02T08:47:49.261Z,5.10
2023-03-02T08:48:49.276Z,4.80
2023-03-02T08:49:49.256Z,4.30
2023-03-02T08:50:49.238Z,4.50
2023-03-02T08:51:49.244Z,5.20
2023-03-02T08:52:49.221Z,4.50
2023-03-02T08:53:49.230Z,4.40
2023-03-02T08:54:49.230Z,4.90
2023-03-02T08:55:49.197Z,5.50
2023-03-02T08:56:49.182Z,5.80
2023-03-02T08:57:49.190Z,4.60
2023-03-02T08:58:49.197Z,5.10
2023-03-02T08:59:49.161Z,5.00
2023-03-02T09:00:49.215Z,5.10
2023-03-02T09:01:49.237Z,5.10
2023-03-02T09:02:49.128Z,4.80
2023-03-02T09:03:49.147Z,5.20
2023-03-02T09:04:49.188Z,5.00
2023-03-02T09:05:49.100Z,5.30
2023-03-02T09:06:49.090Z,5.10
2023-03-02T09:07:49.085Z,5.10
2023-03-02T09:08:49.114Z,5.90
2023-03-02T09:09:49.130Z,5.30
2023-03-02T09:10:49.059Z,5.40
2023-03-02T09:11:49.056Z,5.00
2023-03-02T09:12:49.050Z,5.00
2023-03-02T09:13:49.029Z,5.40
2023-03-02T09:14:49.039Z,5.30
2023-03-02T09:15:49.018Z,5.30
2023-03-02T09:16:49.077Z,4.70
2023-03-02T09:17:48.993Z,4.60
2023-03-02T09:18:48.982Z,5.10
2023-03-02T09:19:49.006Z,4.50
2023-03-02T09:20:48.971Z,4.90
2023-03-02T09:21:48.951Z,5.60
2023-03-02T09:22:49.956Z,5.10
2023-03-02T09:23:48.947Z,6.10
2023-03-02T09:24:48.948Z,5.00
2023-03-02T09:25:48.953Z,5.60
2023-03-02T09:26:48.920Z,5.50
2023-03-02T09:27:48.943Z,5.40
2023-03-02T09:28:48.904Z,5.80
2023-03-02T09:29:48.907Z,5.50
2023-03-02T09:30:48.886Z,5.60
2023-03-02T09:31:48.973Z,5.10
2023-03-02T09:32:48.978Z,5.30
2023-03-02T09:33:48.914Z,5.30
2023-03-02T09:34:48.857Z,4.70
2023-03-02T09:35:48.850Z,4.60
2023-03-02T09:36:48.832Z,5.30
2023-03-02T09:37:48.854Z,5.60
2023-03-02T09:38:48.819Z,5.70
2023-03-02T09:39:48.847Z,5.80
2023-03-02T09:40:48.793Z,6.40
2023-03-02T09:41:48.790Z,5.70
2023-03-02T09:42:48.774Z,6.00
2023-03-02T09:43:48.769Z,5.30
2023-03-02T09:44:48.765Z,5.80
2023-03-02T09:45:48.781Z,5.70
2023-03-02T09:46:48.739Z,4.80
2023-03-02T09:47:48.720Z,5.70
2023-03-02T09:48:49.718Z,5.70
2023-03-02T09:49:48.718Z,5.80
2023-03-02T09:50:48.704Z,5.50
2023-03-02T09:51:48.718Z,5.10
2023-03-02T09:52:48.685Z,5.10
2023-03-02T09:53:48.676Z,5.50
2023-03-02T09:54:48.668Z,5.70
2023-03-02T09:55:49.656Z,5.90
2023-03-02T09:56:48.663Z,5.30
2023-03-02T09:57:48.662Z,5.10
2023-03-02T09:58:48.627Z,5.30
2023-03-02T09:59:48.652Z,5.60
2023-03-02T10:00:48.618Z,6.10
2023-03-02T10:01:48.600Z,5.50
2023-03-02T10:02:48.689Z,5.60
2023-03-02T10:03:48.755Z,5.60
2023-03-02T10:04:48.631Z,4.70
2023-03-02T10:05:48.598Z,5.20
2023-03-02T10:06:48.551Z,6.10
2023-03-02T10:07:48.554Z,5.30
2023-03-02T10:08:48.539Z,5.20
2023-03-02T10:09:48.545Z,5.30
2023-03-02T10:10:48.528Z,5.50
2023-03-02T10:11:48.515Z,5.70
2023-03-02T10:12:48.500Z,5.60
2023-03-02T10:13:48.490Z,5.80
2023-03-02T10:14:48.497Z,5.30
2023-03-02T10:15:48.583Z,5.60
2023-03-02T10:16:48.497Z,5.40
2023-03-02T10:17:48.498Z,5.30
2023-03-02T10:18:48.522Z,5.70
2023-03-02T10:19:48.453Z,5.50
2023-03-02T10:20:48.430Z,4.60
2023-03-02T10:21:48.420Z,4.80
2023-03-02T10:22:48.419Z,5.40
2023-03-02T10:23:48.406Z,5.80
2023-03-02T10:24:48.407Z,5.90
2023-03-02T10:25:48.392Z,5.40
2023-03-02T10:26:48.415Z,5.30
2023-03-02T10:27:48.445Z,5.40
2023-03-02T10:28:48.375Z,4.80
2023-03-02T10:29:48.361Z,5.70
2023-03-02T10:30:48.407Z,5.10
2023-03-02T10:31:48.340Z,5.20
2023-03-02T10:32:48.333Z,5.80
2023-03-02T10:33:48.320Z,5.10
2023-03-02T10:34:48.358Z,5.20
2023-03-02T10:35:48.393Z,5.60
2023-03-02T10:36:48.314Z,5.70
2023-03-02T10:37:48.347Z,5.50
2023-03-02T10:38:48.283Z,5.30
2023-03-02T10:39:48.319Z,5.10
2023-03-02T10:40:48.255Z,6.20
2023-03-02T10:41:48.293Z,5.00
2023-03-02T10:42:48.246Z,5.00
2023-03-02T10:43:48.247Z,5.00
2023-03-02T10:44:48.444Z,4.90
2023-03-02T10:45:48.286Z,5.10
2023-03-02T10:46:48.288Z,5.10
2023-03-02T10:47:48.283Z,5.70
2023-03-02T10:48:49.659Z,5.30
2023-03-02T10:49:49.189Z,5.50
2023-03-02T10:50:48.170Z,5.40
2023-03-02T10:51:48.171Z,5.10
2023-03-02T10:52:59.227Z,5.70
2023-03-02T10:53:50.146Z,5.10
2023-03-02T10:54:48.152Z,5.70
2023-03-02T10:55:48.129Z,5.70
2023-03-02T10:56:48.131Z,5.50
2023-03-02T10:57:48.110Z,5.50
2023-03-02T10:58:48.100Z,5.30
2023-03-02T10:59:48.107Z,5.40
2023-03-02T11:00:48.086Z,5.40
2023-03-02T11:01:48.155Z,5.10
2023-03-02T11:02:48.069Z,5.60
2023-03-02T11:03:48.063Z,5.50
2023-03-02T11:04:48.119Z,5.10
2023-03-02T11:05:48.042Z,5.70
2023-03-02T11:06:48.034Z,5.10
2023-03-02T11:07:48.020Z,5.00
2023-03-02T11:08:48.017Z,4.30
2023-03-02T11:09:48.020Z,5.00
2023-03-02T11:10:47.996Z,4.20
2023-03-02T11:11:48.045Z,4.80
2023-03-02T11:12:47.982Z,5.00
2023-03-02T11:13:47.970Z,3.80
2023-03-02T11:14:47.961Z,4.40
2023-03-02T11:15:48.026Z,4.60
2023-03-02T11:16:47.944Z,4.90
2023-03-02T11:17:47.938Z,4.90
2023-03-02T11:18:47.925Z,5.10
2023-03-02T11:19:47.939Z,5.00
2023-03-02T11:20:47.904Z,5.20
2023-03-02T11:21:47.898Z,4.90
2023-03-02T11:22:47.883Z,5.00
2023-03-02T11:23:47.875Z,4.60
2023-03-02T11:24:47.872Z,4.10
2023-03-02T11:25:47.921Z,4.50
2023-03-02T11:26:47.850Z,4.70
2023-03-02T11:27:47.840Z,5.10
2023-03-02T11:28:47.875Z,5.10
2023-03-02T11:29:47.827Z,5.20
2023-03-02T11:30:47.822Z,5.10
2023-03-02T11:31:47.864Z,5.20
2023-03-02T11:32:47.872Z,4.70
2023-03-02T11:33:47.890Z,4.40
2023-03-02T11:34:47.779Z,4.60
2023-03-02T11:35:47.838Z,4.90
2023-03-02T11:36:47.755Z,4.60
2023-03-02T11:37:47.745Z,4.90
2023-03-02T11:38:47.746Z,4.20
2023-03-02T11:39:54.968Z,4.30
2023-03-02T11:40:49.735Z,4.00
2023-03-02T11:41:47.727Z,4.70
2023-03-02T11:42:47.708Z,4.90
2023-03-02T11:43:47.691Z,3.80
2023-03-02T11:44:47.690Z,5.00
2023-03-02T11:45:47.688Z,4.30
2023-03-02T11:46:47.699Z,3.50
2023-03-02T11:47:54.187Z,4.50
2023-03-02T11:48:49.657Z,3.40
2023-03-02T11:49:47.661Z,4.50
2023-03-02T11:50:47.637Z,4.70
2023-03-02T11:51:57.842Z,4.60
2023-03-02T11:52:49.608Z,4.90
2023-03-02T11:53:47.718Z,4.40
2023-03-02T11:54:47.607Z,4.00
2023-03-02T11:55:47.600Z,4.10
2023-03-02T11:56:47.573Z,4.50
2023-03-02T11:57:47.562Z,4.60
2023-03-02T11:58:47.558Z,5.10
2023-03-02T11:59:47.545Z,4.60
2023-03-02T12:00:47.556Z,5.20
2023-03-02T12:01:47.559Z,4.50
2023-03-02T12:02:47.523Z,4.80
2023-03-02T12:03:47.619Z,4.50
2023-03-02T12:04:47.512Z,5.40
2023-03-02T12:05:47.591Z,4.40
2023-03-02T12:06:47.502Z,4.40
2023-03-02T12:07:47.472Z,4.80
2023-03-02T12:08:47.561Z,4.30
2023-03-02T12:09:47.455Z,4.40
2023-03-02T12:10:47.460Z,4.00
2023-03-02T12:11:47.440Z,4.60
2023-03-02T12:12:47.434Z,4.10
2023-03-02T12:13:47.424Z,4.60
2023-03-02T12:14:47.493Z,4.70
2023-03-02T12:15:47.416Z,4.30
2023-03-02T12:16:47.428Z,4.30
2023-03-02T12:17:47.397Z,4.00
2023-03-02T12:18:47.377Z,4.50
2023-03-02T12:19:47.369Z,4.30
2023-03-02T12:20:47.369Z,4.80
2023-03-02T12:21:47.350Z,4.40
2023-03-02T12:22:47.335Z,4.30
2023-03-02T12:23:47.330Z,4.90
2023-03-02T12:24:47.316Z,4.80
2023-03-02T12:25:47.321Z,4.40
2023-03-02T12:26:47.303Z,4.40
2023-03-02T12:27:47.289Z,5.00
2023-03-02T12:28:47.311Z,5.00
2023-03-02T12:29:47.270Z,5.10
2023-03-02T12:30:47.272Z,4.50
2023-03-02T12:31:47.307Z,4.80
2023-03-02T12:32:47.245Z,4.60
2023-03-02T12:33:47.229Z,5.20
2023-03-02T12:34:47.223Z,4.80
2023-03-02T12:35:47.267Z,4.80
2023-03-02T12:36:47.257Z,4.50
2023-03-02T12:37:47.214Z,5.00
2023-03-02T12:38:47.211Z,4.90
2023-03-02T12:39:47.181Z,4.80
2023-03-02T12:40:47.178Z,4.60
2023-03-02T12:41:47.219Z,4.80
2023-03-02T12:42:47.143Z,4.90
2023-03-02T12:43:47.136Z,4.40
2023-03-02T12:44:47.123Z,4.10
2023-03-02T12:45:47.190Z,4.50
2023-03-02T12:46:47.178Z,4.70
2023-03-02T12:47:47.452Z,4.50
2023-03-02T12:48:47.588Z,5.00
2023-03-02T12:49:47.094Z,4.30
2023-03-02T12:50:47.078Z,4.70
2023-03-02T12:51:47.179Z,4.60
2023-03-02T12:52:47.058Z,4.30
2023-03-02T12:53:47.048Z,4.60
2023-03-02T12:54:47.034Z,4.60
2023-03-02T12:55:47.072Z,4.70
2023-03-02T12:56:47.015Z,5.10
2023-03-02T12:57:47.000Z,4.60
2023-03-02T12:58:47.997Z,4.90
2023-03-02T12:59:47.023Z,5.10
2023-03-02T13:00:47.005Z,5.00
2023-03-02T13:01:46.969Z,5.00
2023-03-02T13:02:47.020Z,5.40
2023-03-02T13:03:46.993Z,4.90
2023-03-02T13:04:46.942Z,4.50
2023-03-02T13:05:46.943Z,5.00
2023-03-02T13:06:46.918Z,4.80
2023-03-02T13:07:46.910Z,4.80
2023-03-02T13:08:46.958Z,4.50
2023-03-02T13:09:56.131Z,3.50
2023-03-02T13:10:48.967Z,4.50
2023-03-02T13:11:46.876Z,4.50
2023-03-02T13:12:46.870Z,4.20
2023-03-02T13:13:46.921Z,4.30
2023-03-02T13:14:46.841Z,4.70
2023-03-02T13:15:46.844Z,4.50
2023-03-02T13:16:46.915Z,4.00
2023-03-02T13:17:46.817Z,4.50
2023-03-02T13:18:46.807Z,4.30